createdAt,value
2023-02-04T00:00:08.227Z,9.57
2023-02-04T00:02:10.325Z,6.22
2023-02-04T00:04:14.726Z,8.95
2023-02-04T00:06:16.352Z,8.07
2023-02-04T00:08:20.545Z,8.20
2023-02-04T00:10:22.213Z,11.15
2023-02-04T00:12:23.927Z,9.80
2023-02-04T00:14:25.464Z,9.50
2023-02-04T00:16:27.075Z,5.25
2023-02-04T00:18:29.343Z,6.45
2023-02-04T00:20:31.438Z,10.30
2023-02-04T00:22:33.211Z,6.50
2023-02-04T00:24:35.893Z,9.13
2023-02-04T00:26:37.539Z,9.90
2023-02-04T00:28:39.002Z,6.70
2023-02-04T00:30:40.535Z,6.70
2023-02-04T00:32:43.920Z,6.28
2023-02-04T00:34:46.936Z,7.03
2023-02-04T00:36:51.615Z,9.23
2023-02-04T00:38:53.200Z,8.82
2023-02-04T00:40:54.849Z,8.35
2023-02-04T00:43:02.180Z,10.50
2023-02-04T00:45:03.881Z,9.85
2023-02-04T00:47:06.149Z,8.93
2023-02-04T00:49:10.556Z,8.27
2023-02-04T00:51:12.227Z,6.97
2023-02-04T00:53:13.866Z,7.97
2023-02-04T00:55:18.086Z,9.38
2023-02-04T00:57:19.833Z,7.32
2023-02-04T00:59:24.533Z,6.55
2023-02-04T01:01:26.299Z,7.05
2023-02-04T01:03:28.007Z,6.60
2023-02-04T01:05:30.612Z,6.60
2023-02-04T01:07:32.369Z,8.98
2023-02-04T01:09:34.009Z,11.07
2023-02-04T01:11:36.604Z,8.27
2023-02-04T01:13:38.606Z,8.27
2023-02-04T01:15:40.369Z,9.23
2023-02-04T01:17:42.319Z,5.78
2023-02-04T01:19:43.942Z,8.05
2023-02-04T01:21:45.469Z,3.90
2023-02-04T01:23:47.278Z,6.38
2023-02-04T01:25:49.891Z,8.25
2023-02-04T01:27:51.741Z,7.93
2023-02-04T01:29:53.432Z,5.90
2023-02-04T01:31:54.877Z,6.20
2023-02-04T01:33:56.434Z,6.00
2023-02-04T01:36:00.371Z,6.28
2023-02-04T01:38:02.136Z,5.88
2023-02-04T01:40:04.460Z,4.95
2023-02-04T01:42:06.435Z,9.43
2023-02-04T01:44:08.281Z,7.30
2023-02-04T01:46:10.609Z,7.13
2023-02-04T01:48:16.558Z,8.32
2023-02-04T01:50:18.659Z,8.20
2023-02-04T01:52:20.273Z,5.05
2023-02-04T01:54:22.206Z,5.13
2023-02-04T01:56:26.873Z,6.88
2023-02-04T01:58:35.562Z,8.70
2023-02-04T02:00:39.037Z,5.45
2023-02-04T02:02:49.021Z,5.50
2023-02-04T02:04:50.491Z,7.78
2023-02-04T02:06:55.445Z,5.25
2023-02-04T02:08:58.431Z,6.30
2023-02-04T02:11:00.058Z,8.35
2023-02-04T02:13:01.956Z,7.05
2023-02-04T02:15:05.450Z,7.20
2023-02-04T02:17:07.126Z,8.18
2023-02-04T02:19:14.930Z,8.30
2023-02-04T02:21:21.826Z,5.22
2023-02-04T02:24:01.064Z,8.48
2023-02-04T02:26:02.647Z,7.60
2023-02-04T02:28:09.204Z,9.23
2023-02-04T02:30:19.898Z,5.45
2023-02-04T02:32:24.469Z,6.47
2023-02-04T02:34:29.452Z,7.28
2023-02-04T02:36:33.552Z,7.43
2023-02-04T02:38:35.207Z,6.47
2023-02-04T02:40:37.661Z,7.68
2023-02-04T02:42:39.671Z,6.93
2023-02-04T02:44:44.469Z,6.18
2023-02-04T02:46:48.860Z,6.25
2023-02-04T02:48:50.584Z,7.32
2023-02-04T02:50:52.722Z,7.55
2023-02-04T02:52:57.009Z,7.93
2023-02-04T02:54:58.766Z,5.32
2023-02-04T02:57:00.542Z,7.88
2023-02-04T02:59:16.937Z,7.53
2023-02-04T03:01:19.377Z,5.30
2023-02-04T03:03:25.714Z,6.75
2023-02-04T03:05:34.046Z,8.73
2023-02-04T03:07:37.446Z,7.60
2023-02-04T03:09:39.115Z,7.13
2023-02-04T03:11:40.927Z,5.13
2023-02-04T03:13:43.030Z,5.97
2023-02-04T03:15:47.724Z,9.25
2023-02-04T03:17:51.512Z,7.70
2023-02-04T03:19:55.790Z,7.13
2023-02-04T03:22:00.932Z,6.50
2023-02-04T03:24:02.695Z,7.28
2023-02-04T03:26:06.494Z,4.15
2023-02-04T03:28:09.832Z,5.32
2023-02-04T03:30:11.715Z,6.75
2023-02-04T03:32:13.282Z,7.15
2023-02-04T03:34:14.914Z,5.55
2023-02-04T03:36:16.645Z,6.38
2023-02-04T03:38:19.908Z,7.10
2023-02-04T03:40:21.608Z,4.75
2023-02-04T03:42:23.186Z,7.82
2023-02-04T03:44:27.030Z,5.00
2023-02-04T03:46:28.907Z,10.15
2023-02-04T03:48:30.599Z,8.85
2023-02-04T03:50:32.545Z,7.68
2023-02-04T03:52:34.315Z,9.63
2023-02-04T03:54:38.547Z,7.47
2023-02-04T03:56:40.115Z,5.07
2023-02-04T03:58:41.628Z,6.20
2023-02-04T04:00:43.571Z,6.70
2023-02-04T04:02:45.341Z,5.93
2023-02-04T04:04:49.358Z,8.27
2023-02-04T04:06:51.049Z,7.28
2023-02-04T04:08:52.516Z,5.38
2023-02-04T04:10:54.178Z,4.75
2023-02-04T04:12:55.964Z,6.57
2023-02-04T04:14:57.603Z,5.85
2023-02-04T04:17:00.835Z,6.57
2023-02-04T04:19:02.342Z,7.90
2023-02-04T04:21:03.916Z,8.75
2023-02-04T04:23:05.391Z,7.75
2023-02-04T04:25:07.805Z,8.02
2023-02-04T04:27:12.293Z,9.65
2023-02-04T04:29:13.858Z,7.75
2023-02-04T04:31:15.636Z,7.28
2023-02-04T04:33:17.226Z,5.75
2023-02-04T04:35:18.890Z,8.95
2023-02-04T04:37:20.466Z,5.53
2023-02-04T04:39:24.245Z,9.00
2023-02-04T04:41:28.509Z,8.48
2023-02-04T04:43:30.110Z,4.28
2023-02-04T04:45:31.694Z,6.47
2023-02-04T04:47:33.186Z,11.05
2023-02-04T04:49:34.698Z,5.45
2023-02-04T04:51:36.689Z,6.22
2023-02-04T04:53:38.172Z,7.65
2023-02-04T04:55:40.538Z,6.40
2023-02-04T04:57:42.064Z,6.65
2023-02-04T04:59:43.593Z,7.65
2023-02-04T05:01:45.151Z,9.82
2023-02-04T05:03:46.670Z,6.88
2023-02-04T05:05:48.427Z,7.57
2023-02-04T05:07:50.087Z,9.48
2023-02-04T05:09:51.681Z,9.27
2023-02-04T05:11:53.282Z,6.72
2023-02-04T05:13:56.107Z,6.78
2023-02-04T05:15:58.167Z,7.18
2023-02-04T05:18:00.132Z,8.02
2023-02-04T05:20:03.683Z,7.68
2023-02-04T05:22:05.192Z,10.48
2023-02-04T05:24:06.700Z,5.85
2023-02-04T05:26:13.636Z,5.97
2023-02-04T05:28:16.891Z,6.35
2023-02-04T05:30:18.739Z,6.85
2023-02-04T05:32:20.411Z,5.78
2023-02-04T05:34:22.037Z,5.18
2023-02-04T05:36:23.669Z,6.05
2023-02-04T05:38:25.117Z,8.68
2023-02-04T05:40:29.662Z,5.28
2023-02-04T05:42:31.427Z,5.88
2023-02-04T05:44:33.075Z,6.65
2023-02-04T05:46:41.237Z,6.68
2023-02-04T05:48:42.713Z,4.97
2023-02-04T05:50:44.475Z,6.72
2023-02-04T05:52:46.259Z,4.95
2023-02-04T05:54:47.995Z,6.47
2023-02-04T05:56:52.177Z,3.97
2023-02-04T05:58:54.973Z,7.57
2023-02-04T06:00:56.623Z,9.50
2023-02-04T06:02:58.208Z,5.85
2023-02-04T06:05:00.264Z,6.32
2023-02-04T06:07:03.356Z,8.43
2023-02-04T06:09:04.921Z,5.05
2023-02-04T06:11:06.818Z,4.95
2023-02-04T06:13:08.445Z,5.35
2023-02-04T06:15:10.820Z,5.22
2023-02-04T06:17:15.313Z,2.90
2023-02-04T06:19:16.792Z,4.32
2023-02-04T06:21:18.768Z,2.60
2023-02-04T06:23:20.292Z,2.58
2023-02-04T06:25:23.168Z,2.25
2023-02-04T06:29:40.289Z,2.45
2023-02-04T06:31:42.037Z,3.15
2023-02-04T06:33:43.785Z,3.38
2023-02-04T06:35:45.395Z,1.33
2023-02-04T06:37:47.410Z,1.50
2023-02-04T06:39:55.341Z,1.80
2023-02-04T06:42:00.685Z,1.60
2023-02-04T06:44:02.154Z,1.58
2023-02-04T06:46:05.398Z,3.22
2023-02-04T06:48:07.177Z,1.20
2023-02-04T06:50:10.946Z,1.77
2023-02-04T06:52:12.628Z,0.77
2023-02-04T06:54:14.178Z,1.60
2023-02-04T06:56:15.865Z,0.50
2023-02-04T06:58:20.742Z,0.32
2023-02-04T07:00:22.796Z,0.52
2023-02-04T07:02:26.559Z,2.30
2023-02-04T07:04:28.075Z,0.75
2023-02-04T07:06:29.725Z,0.77
2023-02-04T07:08:31.497Z,0.60
2023-02-04T07:10:35.694Z,1.88
2023-02-04T07:12:37.374Z,1.10
2023-02-04T07:14:39.159Z,0.82
2023-02-04T07:16:40.755Z,2.00
2023-02-04T07:18:42.309Z,1.55
2023-02-04T07:20:44.121Z,1.33
2023-02-04T07:22:45.775Z,1.45
2023-02-04T07:24:47.565Z,0.95
2023-02-04T07:26:52.198Z,1.20
2023-02-04T07:28:53.826Z,1.23
2023-02-04T07:30:55.680Z,1.88
2023-02-04T07:32:57.330Z,3.47
2023-02-04T07:35:00.031Z,1.88
2023-02-04T07:37:01.974Z,3.80
2023-02-04T07:39:04.276Z,2.80
2023-02-04T07:41:05.868Z,2.33
2023-02-04T07:43:07.818Z,2.83
2023-02-04T07:45:19.145Z,2.42
2023-02-04T07:47:23.532Z,4.28
2023-02-04T07:49:25.004Z,3.95
2023-02-04T07:51:27.929Z,2.13
2023-02-04T07:53:29.791Z,1.85
2023-02-04T07:55:31.503Z,2.42
2023-02-04T07:57:33.386Z,2.65
2023-02-04T07:59:34.913Z,1.83
2023-02-04T08:01:36.591Z,2.47
2023-02-04T08:03:39.912Z,2.53
2023-02-04T08:05:42.501Z,2.65
2023-02-04T08:07:44.348Z,3.35
2023-02-04T08:09:48.973Z,2.25
2023-02-04T08:11:50.509Z,1.73
2023-02-04T08:13:52.246Z,2.55
2023-02-04T08:15:53.948Z,2.13
2023-02-04T08:17:55.554Z,1.90
2023-02-04T08:19:57.210Z,1.83
2023-02-04T08:21:58.895Z,2.90
2023-02-04T08:24:00.517Z,1.63
2023-02-04T08:26:02.219Z,1.75
2023-02-04T08:28:04.887Z,3.58
2023-02-04T08:30:10.334Z,2.75
2023-02-04T08:32:13.344Z,2.35
2023-02-04T08:34:16.153Z,1.70
2023-02-04T08:36:20.016Z,1.60
2023-02-04T08:38:21.774Z,2.40
2023-02-04T08:40:23.639Z,2.00
2023-02-04T08:42:25.560Z,3.13
2023-02-04T08:44:27.291Z,4.25
2023-02-04T08:46:29.036Z,2.65
2023-02-04T08:48:33.323Z,3.08
2023-02-04T08:50:36.233Z,2.45
2023-02-04T08:52:38.983Z,2.40
2023-02-04T08:54:40.434Z,2.10
2023-02-04T08:56:42.229Z,2.55
2023-02-04T08:58:47.530Z,1.83
2023-02-04T09:00:49.193Z,2.67
2023-02-04T09:02:51.878Z,2.40
2023-02-04T09:04:53.340Z,3.30
2023-02-04T09:07:03.256Z,2.08
2023-02-04T09:09:04.905Z,3.05
2023-02-04T09:11:07.726Z,1.58
2023-02-04T09:13:11.694Z,1.40
2023-02-04T09:15:16.814Z,2.00
2023-02-04T09:17:19.200Z,1.77
2023-02-04T09:19:25.997Z,1.95
2023-02-04T09:21:28.196Z,1.45
2023-02-04T09:23:30.197Z,1.80
2023-02-04T09:25:32.458Z,1.60
2023-02-04T09:27:34.037Z,2.13
2023-02-04T09:29:35.543Z,1.80
2023-02-04T09:31:37.272Z,1.75
2023-02-04T09:33:39.187Z,1.52
2023-02-04T09:35:40.933Z,1.33
2023-02-04T09:37:42.581Z,1.60
2023-02-04T09:39:44.468Z,1.73
2023-02-04T09:41:46.203Z,2.22
2023-02-04T09:43:49.183Z,4.63
2023-02-04T09:45:51.672Z,3.45
2023-02-04T09:47:54.141Z,3.38
2023-02-04T09:49:55.819Z,2.42
2023-02-04T09:51:58.904Z,2.47
2023-02-04T09:54:18.272Z,2.15
2023-02-04T09:56:20.481Z,1.17
2023-02-04T09:58:29.108Z,1.45
2023-02-04T10:00:31.524Z,2.00
2023-02-04T10:02:35.013Z,1.60
2023-02-04T10:04:36.990Z,1.17
2023-02-04T10:06:39.498Z,1.63
2023-02-04T10:08:42.474Z,1.75
2023-02-04T10:10:46.628Z,2.28
2023-02-04T10:12:50.090Z,1.15
2023-02-04T10:14:51.746Z,0.82
2023-02-04T10:17:00.006Z,1.25
2023-02-04T10:19:08.230Z,1.52
2023-02-04T10:21:26.647Z,0.98
2023-02-04T10:23:28.172Z,1.15
2023-02-04T10:25:29.779Z,1.10
2023-02-04T10:27:31.339Z,0.77
2023-02-04T10:29:33.094Z,1.10
2023-02-04T10:31:39.489Z,0.80
2023-02-04T10:33:41.291Z,0.65
2023-02-04T10:35:48.097Z,0.70
2023-02-04T10:38:04.595Z,1.52
2023-02-04T10:40:40.313Z,0.90
2023-02-04T10:42:49.502Z,0.90
2023-02-04T10:44:51.672Z,0.73
2023-02-04T10:47:05.155Z,0.80
2023-02-04T10:49:23.796Z,0.98
2023-02-04T10:51:25.582Z,0.60
2023-02-04T10:53:45.926Z,1.27
2023-02-04T10:55:49.326Z,0.60
2023-02-04T10:57:52.876Z,0.75
2023-02-04T11:00:03.078Z,1.23
2023-02-04T11:02:39.005Z,1.35
2023-02-04T11:04:40.552Z,0.50
2023-02-04T11:06:43.621Z,0.80
2023-02-04T11:08:50.123Z,0.85
2023-02-04T11:10:57.833Z,0.70
2023-02-04T11:13:01.072Z,0.75
2023-02-04T11:15:06.674Z,0.68
2023-02-04T11:17:20.224Z,0.80
2023-02-04T11:19:39.911Z,0.60
2023-02-04T11:21:45.346Z,0.60
2023-02-04T11:23:48.607Z,1.52
2023-02-04T11:26:31.627Z,0.63
2023-02-04T11:28:59.575Z,1.58
2023-02-04T11:31:03.709Z,1.27
2023-02-04T11:33:21.582Z,1.45
2023-02-04T11:35:29.341Z,1.65
2023-02-04T11:37:38.136Z,2.35
2023-02-04T11:39:47.409Z,1.27
2023-02-04T11:41:49.074Z,0.93
2023-02-04T11:43:52.036Z,1.40
2023-02-04T11:46:15.977Z,1.98
2023-02-04T11:48:20.216Z,1.35
2023-02-04T11:50:26.232Z,1.65
2023-02-04T11:52:27.868Z,1.10
2023-02-04T11:54:29.364Z,2.30
2023-02-04T11:56:33.934Z,1.38
2023-02-04T11:58:42.190Z,1.40
2023-02-04T12:00:44.688Z,1.40
2023-02-04T12:02:54.922Z,0.90
2023-02-04T12:05:08.409Z,1.40
2023-02-04T12:07:12.774Z,1.30
2023-02-04T12:09:17.123Z,1.92
2023-02-04T12:11:27.215Z,2.05
2023-02-04T12:13:30.937Z,1.65
2023-02-04T12:15:37.410Z,1.55
2023-02-04T12:17:39.212Z,1.48
2023-02-04T12:19:40.974Z,2.30
2023-02-04T12:21:43.368Z,1.77
2023-02-04T12:23:45.296Z,2.70
2023-02-04T12:25:50.100Z,2.28
2023-02-04T12:27:53.183Z,1.80
2023-02-04T12:29:57.474Z,1.92
2023-02-04T12:31:59.061Z,1.33
2023-02-04T12:34:00.807Z,1.45
2023-02-04T12:36:02.385Z,1.70
2023-02-04T12:38:05.080Z,1.23
2023-02-04T12:40:08.076Z,1.88
2023-02-04T12:42:09.858Z,1.65
2023-02-04T12:44:11.798Z,2.70
2023-02-04T12:46:13.420Z,1.52
2023-02-04T12:48:15.815Z,3.53
2023-02-04T12:50:26.200Z,1.50
2023-02-04T12:52:29.203Z,1.73
2023-02-04T12:54:30.901Z,1.10
2023-02-04T12:56:32.466Z,2.05
2023-02-04T12:58:34.028Z,1.48
2023-02-04T13:00:35.605Z,1.20
2023-02-04T13:02:37.394Z,1.55
2023-02-04T13:04:41.209Z,1.08
2023-02-04T13:06:42.781Z,2.20
2023-02-04T13:08:44.347Z,2.28
2023-02-04T13:10:50.406Z,2.55
2023-02-04T13:12:51.930Z,1.73
2023-02-04T13:14:53.670Z,2.47
2023-02-04T13:16:55.443Z,2.00
2023-02-04T13:18:57.587Z,2.78
2023-02-04T13:20:59.372Z,2.17
2023-02-04T13:23:01.039Z,2.20
2023-02-04T13:25:04.073Z,1.75
2023-02-04T13:27:05.878Z,2.72
2023-02-04T13:29:07.598Z,2.20
2023-02-04T13:31:13.356Z,2.17
2023-02-04T13:33:15.091Z,2.88
2023-02-04T13:35:16.774Z,3.05
2023-02-04T13:37:18.251Z,2.40
2023-02-04T13:39:20.002Z,2.03
2023-02-04T13:41:21.740Z,2.60
2023-02-04T13:43:23.748Z,2.33
2023-02-04T13:45:25.495Z,3.58
2023-02-04T13:47:26.964Z,2.58
2023-02-04T13:49:42.012Z,1.75
2023-02-04T13:51:45.756Z,1.75
2023-02-04T13:53:47.677Z,2.00
2023-02-04T13:55:49.262Z,2.13
2023-02-04T13:57:50.763Z,2.35
2023-02-04T13:59:52.446Z,1.80
2023-02-04T14:01:54.006Z,1.65
2023-02-04T14:03:57.088Z,2.15
2023-02-04T14:06:05.662Z,1.35
2023-02-04T14:08:07.102Z,1.90
2023-02-04T14:10:09.163Z,1.20
2023-02-04T14:12:10.879Z,1.63
2023-02-04T14:14:12.446Z,1.60
2023-02-04T14:16:14.017Z,3.15
2023-02-04T14:18:18.735Z,2.28
2023-02-04T14:20:20.369Z,2.67
2023-02-04T14:22:24.687Z,3.17
2023-02-04T14:24:26.413Z,1.80
2023-02-04T14:26:28.286Z,2.08
2023-02-04T14:28:29.901Z,2.65
2023-02-04T14:30:32.792Z,2.88
2023-02-04T14:32:34.658Z,3.10
2023-02-04T14:34:36.486Z,5.40
2023-02-04T14:36:38.194Z,4.45
2023-02-04T14:38:39.850Z,4.35
2023-02-04T14:40:44.324Z,3.45
2023-02-04T14:42:50.063Z,2.28
2023-02-04T14:44:51.741Z,2.88
2023-02-04T14:46:53.373Z,2.40
2023-02-04T14:48:55.067Z,1.75
2023-02-04T14:50:56.758Z,2.25
2023-02-04T14:52:58.504Z,1.92
2023-02-04T14:55:00.342Z,2.45
2023-02-04T14:57:04.582Z,3.55
2023-02-04T14:59:06.256Z,3.38
2023-02-04T15:01:08.218Z,3.17
2023-02-04T15:03:09.866Z,3.38
2023-02-04T15:05:15.238Z,2.63
2023-02-04T15:07:16.796Z,2.63
2023-02-04T15:09:19.300Z,1.92
2023-02-04T15:11:20.991Z,3.40
2023-02-04T15:13:24.897Z,1.60
2023-02-04T15:15:26.613Z,1.95
2023-02-04T15:17:28.254Z,5.13
2023-02-04T15:19:33.296Z,6.78
2023-02-04T15:21:35.223Z,6.68
2023-02-04T15:23:36.995Z,9.45
2023-02-04T15:25:40.142Z,9.82
2023-02-04T15:27:41.917Z,8.70
2023-02-04T15:29:43.459Z,10.82
2023-02-04T15:31:45.260Z,9.13
2023-02-04T15:33:49.319Z,10.00
2023-02-04T15:35:52.162Z,9.68
2023-02-04T15:37:53.725Z,9.18
2023-02-04T15:39:57.032Z,6.72
2023-02-04T15:41:58.936Z,4.65
2023-02-04T15:44:00.543Z,5.10
2023-02-04T15:46:02.202Z,4.95
2023-02-04T15:48:03.831Z,4.55
2023-02-04T15:50:08.648Z,3.85
2023-02-04T15:52:19.456Z,3.90
2023-02-04T15:54:28.016Z,5.82
2023-02-04T15:56:29.778Z,3.75
2023-02-04T15:58:34.114Z,4.15
2023-02-04T16:00:36.149Z,4.75
2023-02-04T16:02:37.874Z,5.47
2023-02-04T16:04:41.448Z,4.57
2023-02-04T16:06:53.408Z,5.15
2023-02-04T16:08:59.088Z,5.80
2023-02-04T16:11:02.020Z,5.35
2023-02-04T16:13:03.506Z,5.35
2023-02-04T16:15:05.672Z,6.00
2023-02-04T16:17:08.340Z,5.60
2023-02-04T16:19:09.883Z,7.20
2023-02-04T16:21:11.737Z,5.88
2023-02-04T16:23:13.120Z,6.38
2023-02-04T16:25:14.933Z,5.50
2023-02-04T16:27:17.272Z,7.05
2023-02-04T16:29:21.571Z,7.63
2023-02-04T16:31:23.375Z,6.55
2023-02-04T16:33:26.793Z,6.68
2023-02-04T16:35:28.615Z,7.18
2023-02-04T16:37:31.120Z,6.80
2023-02-04T16:39:33.060Z,5.68
2023-02-04T16:41:34.644Z,5.47
2023-02-04T16:43:37.649Z,5.00
2023-02-04T16:45:40.816Z,6.25
2023-02-04T16:47:42.331Z,4.38
2023-02-04T16:49:48.189Z,5.07
2023-02-04T16:51:49.814Z,4.80
2023-02-04T16:53:51.402Z,4.50
2023-02-04T16:55:53.071Z,5.47
2023-02-04T16:57:54.616Z,5.93
2023-02-04T16:59:56.750Z,6.35
2023-02-04T17:02:00.836Z,7.97
2023-02-04T17:04:03.157Z,7.55
2023-02-04T17:06:04.965Z,8.32
2023-02-04T17:08:07.326Z,7.53
2023-02-04T17:10:09.438Z,6.90
2023-02-04T17:12:11.231Z,7.57
2023-02-04T17:14:15.851Z,6.90
2023-02-04T17:16:19.723Z,6.88
2023-02-04T17:18:21.337Z,7.85
2023-02-04T17:20:24.513Z,5.93
2023-02-04T17:22:26.900Z,5.72
2023-02-04T17:24:29.249Z,5.15
2023-02-04T17:26:36.946Z,4.25
2023-02-04T17:28:38.656Z,3.95
2023-02-04T17:30:40.379Z,3.10
2023-02-04T17:32:42.598Z,3.10
2023-02-04T17:34:45.320Z,3.42
2023-02-04T17:36:47.044Z,2.60
2023-02-04T17:38:48.565Z,2.28
2023-02-04T17:40:50.369Z,3.72
2023-02-04T17:42:51.988Z,3.28
2023-02-04T17:44:54.336Z,3.78
2023-02-04T17:46:57.371Z,2.85
2023-02-04T17:48:59.205Z,3.60
2023-02-04T17:51:00.908Z,3.67
2023-02-04T17:53:04.140Z,2.63
2023-02-04T17:55:27.598Z,3.20
2023-02-04T17:57:29.239Z,3.28
2023-02-04T17:59:31.717Z,3.17
2023-02-04T18:01:33.937Z,4.23
2023-02-04T18:03:36.180Z,3.22
2023-02-04T18:05:44.657Z,3.50
2023-02-04T18:07:56.282Z,4.87
2023-02-04T18:10:17.903Z,6.93
2023-02-04T18:12:20.187Z,8.77
2023-02-04T18:14:30.339Z,8.35
2023-02-04T18:16:34.481Z,10.65
2023-02-04T18:18:38.387Z,13.20
2023-02-04T18:20:40.345Z,11.50
2023-02-04T18:22:41.972Z,11.70
2023-02-04T18:24:47.641Z,10.45
2023-02-04T18:26:52.568Z,10.27
2023-02-04T18:28:54.218Z,7.90
2023-02-04T18:31:00.431Z,7.13
2023-02-04T18:33:06.901Z,6.60
2023-02-04T18:35:31.679Z,5.63
2023-02-04T18:37:46.762Z,6.23
2023-02-04T18:39:48.570Z,6.25
2023-02-04T18:41:51.991Z,5.77
2023-02-04T18:44:02.267Z,6.03
2023-02-04T18:46:20.277Z,5.30
2023-02-04T18:48:22.739Z,6.80
2023-02-04T18:50:29.846Z,5.00
2023-02-04T18:52:37.583Z,5.37
2023-02-04T18:54:40.270Z,5.80
2023-02-04T18:56:42.825Z,9.43
2023-02-04T18:58:49.288Z,6.60
2023-02-04T19:01:00.342Z,6.37
2023-02-04T19:03:37.249Z,6.50
2023-02-04T19:05:48.995Z,6.07
2023-02-04T19:07:52.961Z,5.73
2023-02-04T19:09:59.001Z,5.23
2023-02-04T19:12:19.657Z,5.57
2023-02-04T19:14:38.966Z,5.00
2023-02-04T19:16:42.216Z,5.10
2023-02-04T19:18:44.335Z,5.00
2023-02-04T19:20:45.981Z,6.67
2023-02-04T19:22:51.891Z,6.53
2023-02-04T19:25:02.159Z,7.43
2023-02-04T19:27:29.632Z,5.00
2023-02-04T19:29:37.953Z,6.10
2023-02-04T19:31:42.905Z,5.70
2023-02-04T19:33:47.999Z,5.80
2023-02-04T19:35:50.148Z,4.20
2023-02-04T19:38:30.387Z,4.87
2023-02-04T19:40:34.965Z,4.27
2023-02-04T19:42:37.852Z,9.73
2023-02-04T19:44:43.666Z,17.00
2023-02-04T19:46:45.429Z,33.37
2023-02-04T19:48:47.397Z,32.07
2023-02-04T19:50:54.239Z,26.93
2023-02-04T19:53:09.510Z,19.03
2023-02-04T19:55:17.221Z,13.87
2023-02-04T19:57:25.511Z,10.13
2023-02-04T19:59:36.305Z,10.07
2023-02-04T20:01:41.067Z,9.17
2023-02-04T20:03:49.445Z,8.93
2023-02-04T20:05:51.601Z,9.07
2023-02-04T20:07:53.091Z,7.47
2023-02-04T20:10:00.806Z,8.37
2023-02-04T20:12:11.983Z,7.13
2023-02-04T20:14:16.392Z,6.87
2023-02-04T20:16:41.126Z,6.90
2023-02-04T20:18:45.210Z,8.07
2023-02-04T20:20:47.218Z,9.53
2023-02-04T20:22:53.505Z,10.47
2023-02-04T20:24:58.895Z,11.33
2023-02-04T20:27:02.413Z,12.03
2023-02-04T20:29:13.557Z,12.23
2023-02-04T20:31:35.845Z,14.53
2023-02-04T20:34:12.978Z,14.23
2023-02-04T20:36:26.942Z,15.27
2023-02-04T20:38:32.711Z,14.50
2023-02-04T20:40:42.172Z,13.73
2023-02-04T20:42:46.184Z,12.67
2023-02-04T20:44:49.194Z,12.63
2023-02-04T20:46:50.897Z,12.60
2023-02-04T20:48:52.560Z,14.63
2023-02-04T20:50:55.876Z,11.17
2023-02-04T20:53:06.942Z,12.53
2023-02-04T20:55:27.910Z,12.60
2023-02-04T20:57:41.664Z,10.23
2023-02-04T20:59:44.891Z,9.20
2023-02-04T21:01:49.765Z,9.10
2023-02-04T21:03:51.862Z,7.73
2023-02-04T21:05:54.672Z,7.73
2023-02-04T21:07:58.036Z,7.87
2023-02-04T21:10:04.285Z,8.50
2023-02-04T21:12:07.086Z,8.77
2023-02-04T21:14:09.291Z,10.33
2023-02-04T21:16:12.001Z,8.60
2023-02-04T21:18:13.876Z,8.93
2023-02-04T21:20:15.701Z,9.23
2023-02-04T21:22:17.520Z,8.47
2023-02-04T21:24:21.193Z,9.47
2023-02-04T21:26:22.746Z,10.97
2023-02-04T21:28:24.353Z,14.67
2023-02-04T21:30:30.097Z,13.10
2023-02-04T21:32:31.982Z,12.97
2023-02-04T21:34:33.810Z,13.13
2023-02-04T21:36:35.369Z,12.13
2023-02-04T21:38:36.988Z,13.03
2023-02-04T21:40:39.255Z,12.03
2023-02-04T21:42:41.035Z,14.03
2023-02-04T21:44:42.703Z,14.33
2023-02-04T21:46:44.475Z,13.33
2023-02-04T21:48:46.526Z,15.00
2023-02-04T21:50:48.124Z,13.83
2023-02-04T21:52:49.962Z,13.83
2023-02-04T21:54:51.477Z,13.63
2023-02-04T21:56:52.983Z,14.43
2023-02-04T21:58:54.465Z,13.97
2023-02-04T22:00:56.063Z,14.03
2023-02-04T22:02:58.138Z,13.07
2023-02-04T22:05:02.516Z,16.10
2023-02-04T22:07:04.100Z,15.17
2023-02-04T22:09:05.981Z,13.53
2023-02-04T22:11:07.818Z,15.60
2023-02-04T22:13:09.647Z,13.27
2023-02-04T22:15:17.837Z,12.93
2023-02-04T22:17:19.727Z,12.50
2023-02-04T22:19:21.489Z,14.23
2023-02-04T22:21:23.477Z,17.93
2023-02-04T22:23:28.174Z,19.00
2023-02-04T22:25:29.868Z,17.23
2023-02-04T22:27:31.400Z,16.23
2023-02-04T22:29:33.691Z,15.50
2023-02-04T22:31:35.577Z,15.40
2023-02-04T22:33:37.355Z,13.00
2023-02-04T22:35:41.758Z,13.23
2023-02-04T22:37:46.639Z,15.47
2023-02-04T22:39:48.254Z,21.80
2023-02-04T22:41:50.139Z,58.80
2023-02-04T22:43:51.952Z,63.13
2023-02-04T22:45:55.722Z,57.63
2023-02-04T22:47:59.819Z,48.03
2023-02-04T22:50:01.483Z,40.97
2023-02-04T22:52:03.885Z,31.70
2023-02-04T22:54:05.492Z,24.70
2023-02-04T22:56:07.259Z,22.30
2023-02-04T22:58:09.028Z,19.77
2023-02-04T23:00:11.532Z,19.10
2023-02-04T23:02:16.109Z,16.90
2023-02-04T23:04:17.640Z,17.33
2023-02-04T23:06:27.899Z,16.30
2023-02-04T23:08:29.444Z,17.50
2023-02-04T23:10:31.352Z,14.43
2023-02-04T23:12:35.804Z,14.83
2023-02-04T23:14:40.288Z,14.43
2023-02-04T23:16:43.058Z,14.87
2023-02-04T23:18:44.855Z,14.20
2023-02-04T23:20:46.662Z,13.03
2023-02-04T23:22:48.193Z,13.70
2023-02-04T23:24:49.922Z,11.50
2023-02-04T23:26:51.626Z,12.83
2023-02-04T23:28:58.070Z,11.80
2023-02-04T23:30:59.870Z,10.10
2023-02-04T23:33:01.443Z,11.40
2023-02-04T23:35:06.556Z,9.33
2023-02-04T23:37:08.004Z,8.40
2023-02-04T23:39:09.646Z,8.63
2023-02-04T23:41:11.407Z,10.47
2023-02-04T23:43:13.021Z,10.93
2023-02-04T23:45:14.649Z,9.70
2023-02-04T23:47:16.159Z,10.83
2023-02-04T23:49:17.737Z,10.43
2023-02-04T23:51:19.440Z,9.13
2023-02-04T23:53:20.981Z,9.83
2023-02-04T23:55:22.942Z,11.10
2023-02-04T23:57:24.359Z,10.80
2023-02-04T23:59:28.344Z,9.87
